Yeager Airport Charleston US
ICAO: KCRW
IATA: CRW
Category: Large
Scheduled Services: Yes

Elevation: 981 ft
TransAlt. 18000 ft.

Airport Communications:
CHARLESTON APP/DEP:128.5
ATIS:127.6
CLNC DEL:118.55
GND:121.8
ANG COMD POST/OPS:30.23
ELKINS RDO:122.2
CHARLESTON TWR:125.7
UNICOM:122.95

KCRW Zoom In..

Runways:

(A) RW 05 length 6802 ft width 150 ft
ILS 110.30 / hdg 53

(B) RW 23 length 6802 ft width 150 ft
ILS 110.30 / hdg 233

Location; KCRW
Day. 24 / Time. 13.22 Zulu
* Altimeter: 30.20
* Temperature: 15° c. 59°f.
* Wind from: VRB° Speed 03 kn.
Dewpoint: 15° c.
Visibility: 4 Statute Miles.
Clouds: Scattered 200 ft.
Conditions: Mist.

KCRW 241322Z VRB03KT 4SM BR SCT002 15/15 A3020 RMK AO2 T01500150


Wind From VRB°
Speed 03 kn.

 
 
jpsmedia.com for Web Design SOUNDCLOUD worldairports.se 2018   terms of use